Pagina principale
METAR-TAF:

METAR-TAF

Aeroporti :

Aeroporto di Urmia

Urmia, Iran

latitudine: 37-32N, longitudine: 045-05E, altezza: 1297 m

Osservazione

Il bollettino è stato emesso 47 minuti fa, alle 04:00 UTC
Vento 8 kt da nord-ovest
Temperature 20°C
Umidità 53%
Pressione 1014 hPa
Visibilità 10 km o più
Poco nuvoloso ad un'altezza di 3500 ft, Cumulonembo.
Nuvoloso ad un'altezza di 4000 ft

METAR: OITR 160400Z 31008KT 9999 FEW035CB BKN040 20/10 Q1014

Ora: 09:17 (04:47 UTC)

Previsione

Il bollettino è stato emesso 5 ore e 47 minuti fa, alle 23:00 UTC
Previsione valida dal 16 alle 00 UTC al 17 alle 06 UTC
Vento 6 kt da ovest
Visibilità 10 km o più
Poco nuvoloso ad un'altezza di 4000 ft
Temporaneamente
dal 16 alle 03 UTC al 16 alle 18 UTC
Poco nuvoloso ad un'altezza di 3500 ft, Cumulonembo.
Nubi sparse ad un'altezza di 4000 ft

TAF: OITR 152300Z 1600/1706 27006KT 9999 FEW040 TEMPO 1603/1618 FEW035CB SCT040

Osservazioni e previsioni meteorologiche di più di 4000 aeroporti (messaggi METAR e TAF).

Le stazioni disponibili sono rappresentate dai dischi gialli e rossi sulla carta.

Puntare il mouse per vedere il nome della stazione.

Clicca sopra per visualizzare le osservazioni e previsioni meteorologiche.

Per cambiare la mappa : fare clic sui pulsanti verdi con una croce nera per ingrandire, il pulsante verde con un trattino per diminuire, o sulla freccia verde per le mappe adiacenti.


METAR-TAF: